sensor_id;sensor_type;location;lat;lon;timestamp;P1;durP1;ratioP1;P2;durP2;ratioP2
76848;SDS011;65814;51.134;16.980;2023-08-21T00:00:51;14.40;;;12.90;;
76848;SDS011;65814;51.134;16.980;2023-08-21T00:03:37;14.00;;;12.50;;
76848;SDS011;65814;51.134;16.980;2023-08-21T00:06:05;19.90;;;13.70;;
76848;SDS011;65814;51.134;16.980;2023-08-21T00:08:33;14.20;;;12.60;;
76848;SDS011;65814;51.134;16.980;2023-08-21T00:11:01;14.00;;;12.50;;
76848;SDS011;65814;51.134;16.980;2023-08-21T00:13:29;14.10;;;12.70;;
76848;SDS011;65814;51.134;16.980;2023-08-21T00:15:57;14.50;;;12.60;;
76848;SDS011;65814;51.134;16.980;2023-08-21T00:18:25;14.70;;;12.80;;
76848;SDS011;65814;51.134;16.980;2023-08-21T00:20:53;14.90;;;13.40;;
76848;SDS011;65814;51.134;16.980;2023-08-21T00:23:21;15.30;;;12.90;;
76848;SDS011;65814;51.134;16.980;2023-08-21T00:25:49;14.20;;;12.70;;
76848;SDS011;65814;51.134;16.980;2023-08-21T00:28:17;14.40;;;13.00;;
76848;SDS011;65814;51.134;16.980;2023-08-21T00:30:44;14.40;;;12.90;;
76848;SDS011;65814;51.134;16.980;2023-08-21T00:33:12;15.80;;;13.20;;
76848;SDS011;65814;51.134;16.980;2023-08-21T00:35:41;14.70;;;13.20;;
76848;SDS011;65814;51.134;16.980;2023-08-21T00:38:09;15.30;;;13.80;;
76848;SDS011;65814;51.134;16.980;2023-08-21T00:40:37;15.30;;;13.80;;
76848;SDS011;65814;51.134;16.980;2023-08-21T00:43:05;14.50;;;13.10;;
76848;SDS011;65814;51.134;16.980;2023-08-21T00:45:33;16.50;;;13.80;;
76848;SDS011;65814;51.134;16.980;2023-08-21T00:48:01;14.40;;;13.10;;
76848;SDS011;65814;51.134;16.980;2023-08-21T00:50:29;17.70;;;13.90;;
76848;SDS011;65814;51.134;16.980;2023-08-21T00:52:58;14.30;;;12.90;;
76848;SDS011;65814;51.134;16.980;2023-08-21T00:55:26;17.80;;;13.60;;
76848;SDS011;65814;51.134;16.980;2023-08-21T00:57:54;15.40;;;13.90;;
76848;SDS011;65814;51.134;16.980;2023-08-21T01:00:23;15.70;;;13.70;;
76848;SDS011;65814;51.134;16.980;2023-08-21T01:02:51;15.30;;;13.20;;
76848;SDS011;65814;51.134;16.980;2023-08-21T01:05:21;16.40;;;14.90;;
76848;SDS011;65814;51.134;16.980;2023-08-21T01:07:56;15.90;;;14.20;;
76848;SDS011;65814;51.134;16.980;2023-08-21T01:10:33;14.80;;;13.10;;
76848;SDS011;65814;51.134;16.980;2023-08-21T01:13:13;15.30;;;13.70;;
76848;SDS011;65814;51.134;16.980;2023-08-21T01:15:54;16.10;;;14.40;;
76848;SDS011;65814;51.134;16.980;2023-08-21T01:18:24;15.10;;;13.70;;
76848;SDS011;65814;51.134;16.980;2023-08-21T01:20:54;15.90;;;14.20;;
76848;SDS011;65814;51.134;16.980;2023-08-21T01:23:30;16.10;;;14.30;;
76848;SDS011;65814;51.134;16.980;2023-08-21T01:25:58;16.20;;;14.50;;
76848;SDS011;65814;51.134;16.980;2023-08-21T01:28:26;17.10;;;14.10;;
76848;SDS011;65814;51.134;16.980;2023-08-21T01:31:11;15.60;;;14.00;;
76848;SDS011;65814;51.134;16.980;2023-08-21T01:33:47;16.70;;;15.00;;
76848;SDS011;65814;51.134;16.980;2023-08-21T01:36:17;17.40;;;15.70;;
76848;SDS011;65814;51.134;16.980;2023-08-21T01:38:46;16.30;;;14.60;;
76848;SDS011;65814;51.134;16.980;2023-08-21T01:41:14;20.40;;;16.70;;
76848;SDS011;65814;51.134;16.980;2023-08-21T01:43:42;18.40;;;16.60;;
76848;SDS011;65814;51.134;16.980;2023-08-21T01:46:10;19.60;;;17.60;;
76848;SDS011;65814;51.134;16.980;2023-08-21T01:48:38;18.70;;;16.80;;
76848;SDS011;65814;51.134;16.980;2023-08-21T01:51:06;19.30;;;17.30;;
76848;SDS011;65814;51.134;16.980;2023-08-21T01:53:34;19.50;;;17.40;;
76848;SDS011;65814;51.134;16.980;2023-08-21T01:56:02;18.90;;;16.10;;
76848;SDS011;65814;51.134;16.980;2023-08-21T01:58:30;17.50;;;15.00;;
76848;SDS011;65814;51.134;16.980;2023-08-21T02:00:57;18.40;;;16.50;;
76848;SDS011;65814;51.134;16.980;2023-08-21T02:03:25;19.50;;;16.50;;
76848;SDS011;65814;51.134;16.980;2023-08-21T02:05:57;20.60;;;18.50;;
76848;SDS011;65814;51.134;16.980;2023-08-21T02:08:31;19.60;;;17.30;;
76848;SDS011;65814;51.134;16.980;2023-08-21T02:11:02;21.40;;;19.20;;
76848;SDS011;65814;51.134;16.980;2023-08-21T02:13:30;21.10;;;18.30;;
76848;SDS011;65814;51.134;16.980;2023-08-21T02:16:00;23.10;;;18.30;;
76848;SDS011;65814;51.134;16.980;2023-08-21T02:18:28;19.90;;;17.90;;
76848;SDS011;65814;51.134;16.980;2023-08-21T02:20:57;21.10;;;19.00;;
76848;SDS011;65814;51.134;16.980;2023-08-21T02:23:24;20.60;;;18.10;;
76848;SDS011;65814;51.134;16.980;2023-08-21T02:25:53;25.20;;;19.40;;
76848;SDS011;65814;51.134;16.980;2023-08-21T02:28:21;21.20;;;17.80;;
76848;SDS011;65814;51.134;16.980;2023-08-21T02:30:49;20.90;;;18.70;;
76848;SDS011;65814;51.134;16.980;2023-08-21T02:33:17;20.50;;;18.30;;
76848;SDS011;65814;51.134;16.980;2023-08-21T02:35:45;21.40;;;18.90;;
76848;SDS011;65814;51.134;16.980;2023-08-21T02:38:12;21.10;;;18.90;;
76848;SDS011;65814;51.134;16.980;2023-08-21T02:40:40;20.70;;;17.30;;
76848;SDS011;65814;51.134;16.980;2023-08-21T02:43:09;19.00;;;17.00;;
76848;SDS011;65814;51.134;16.980;2023-08-21T02:45:37;22.20;;;18.70;;
76848;SDS011;65814;51.134;16.980;2023-08-21T02:48:05;21.30;;;18.70;;
76848;SDS011;65814;51.134;16.980;2023-08-21T02:50:33;25.00;;;18.60;;
76848;SDS011;65814;51.134;16.980;2023-08-21T02:53:01;18.20;;;14.40;;
76848;SDS011;65814;51.134;16.980;2023-08-21T02:55:29;16.30;;;13.30;;
76848;SDS011;65814;51.134;16.980;2023-08-21T02:57:57;16.30;;;13.80;;
76848;SDS011;65814;51.134;16.980;2023-08-21T03:00:25;17.00;;;14.00;;
76848;SDS011;65814;51.134;16.980;2023-08-21T03:02:53;17.80;;;14.10;;
76848;SDS011;65814;51.134;16.980;2023-08-21T03:05:21;16.10;;;14.40;;
76848;SDS011;65814;51.134;16.980;2023-08-21T03:07:49;16.90;;;14.30;;
76848;SDS011;65814;51.134;16.980;2023-08-21T03:10:17;19.10;;;15.10;;
76848;SDS011;65814;51.134;16.980;2023-08-21T03:12:46;20.10;;;14.50;;
76848;SDS011;65814;51.134;16.980;2023-08-21T03:15:13;17.20;;;14.00;;
76848;SDS011;65814;51.134;16.980;2023-08-21T03:17:41;17.10;;;14.30;;
76848;SDS011;65814;51.134;16.980;2023-08-21T03:20:09;20.10;;;16.10;;
76848;SDS011;65814;51.134;16.980;2023-08-21T03:22:38;17.40;;;14.10;;
76848;SDS011;65814;51.134;16.980;2023-08-21T03:25:07;15.90;;;14.30;;
76848;SDS011;65814;51.134;16.980;2023-08-21T03:27:35;16.30;;;14.30;;
76848;SDS011;65814;51.134;16.980;2023-08-21T03:32:37;16.30;;;14.50;;
76848;SDS011;65814;51.134;16.980;2023-08-21T03:35:05;19.20;;;16.70;;
76848;SDS011;65814;51.134;16.980;2023-08-21T03:37:33;17.50;;;15.80;;
76848;SDS011;65814;51.134;16.980;2023-08-21T03:40:02;18.50;;;16.50;;
76848;SDS011;65814;51.134;16.980;2023-08-21T03:42:31;22.20;;;18.10;;
76848;SDS011;65814;51.134;16.980;2023-08-21T03:44:59;19.30;;;16.40;;
76848;SDS011;65814;51.134;16.980;2023-08-21T03:47:27;21.40;;;18.90;;
76848;SDS011;65814;51.134;16.980;2023-08-21T03:49:58;17.20;;;15.40;;
76848;SDS011;65814;51.134;16.980;2023-08-21T03:52:25;19.50;;;16.30;;
76848;SDS011;65814;51.134;16.980;2023-08-21T03:54:53;23.70;;;18.50;;
76848;SDS011;65814;51.134;16.980;2023-08-21T03:57:21;19.60;;;16.20;;
76848;SDS011;65814;51.134;16.980;2023-08-21T03:59:49;20.30;;;16.60;;
76848;SDS011;65814;51.134;16.980;2023-08-21T04:02:17;18.20;;;16.40;;
76848;SDS011;65814;51.134;16.980;2023-08-21T04:04:45;21.40;;;15.90;;
76848;SDS011;65814;51.134;16.980;2023-08-21T04:07:13;18.30;;;16.30;;
76848;SDS011;65814;51.134;16.980;2023-08-21T04:09:41;19.10;;;15.70;;
76848;SDS011;65814;51.134;16.980;2023-08-21T04:12:09;18.10;;;16.20;;
76848;SDS011;65814;51.134;16.980;2023-08-21T04:14:36;23.10;;;16.80;;
76848;SDS011;65814;51.134;16.980;2023-08-21T04:17:04;18.60;;;15.80;;
76848;SDS011;65814;51.134;16.980;2023-08-21T04:19:32;20.20;;;16.80;;
76848;SDS011;65814;51.134;16.980;2023-08-21T04:22:01;18.40;;;16.40;;
76848;SDS011;65814;51.134;16.980;2023-08-21T04:24:30;20.20;;;16.60;;
76848;SDS011;65814;51.134;16.980;2023-08-21T04:26:58;19.50;;;16.20;;
76848;SDS011;65814;51.134;16.980;2023-08-21T04:29:26;19.00;;;16.80;;
76848;SDS011;65814;51.134;16.980;2023-08-21T04:31:53;21.50;;;15.40;;
76848;SDS011;65814;51.134;16.980;2023-08-21T04:34:21;18.90;;;15.50;;
76848;SDS011;65814;51.134;16.980;2023-08-21T04:36:49;17.80;;;14.40;;
76848;SDS011;65814;51.134;16.980;2023-08-21T04:39:20;15.80;;;13.10;;
76848;SDS011;65814;51.134;16.980;2023-08-21T04:41:48;17.20;;;14.50;;
76848;SDS011;65814;51.134;16.980;2023-08-21T04:44:16;19.00;;;16.00;;
76848;SDS011;65814;51.134;16.980;2023-08-21T04:46:48;17.20;;;15.40;;
76848;SDS011;65814;51.134;16.980;2023-08-21T04:49:16;16.00;;;14.20;;
76848;SDS011;65814;51.134;16.980;2023-08-21T04:51:44;17.60;;;15.20;;
76848;SDS011;65814;51.134;16.980;2023-08-21T04:54:12;14.20;;;12.40;;
76848;SDS011;65814;51.134;16.980;2023-08-21T04:56:40;17.30;;;14.80;;
76848;SDS011;65814;51.134;16.980;2023-08-21T04:59:07;16.50;;;14.30;;
76848;SDS011;65814;51.134;16.980;2023-08-21T05:01:35;14.90;;;13.40;;
76848;SDS011;65814;51.134;16.980;2023-08-21T05:04:03;17.50;;;14.20;;
76848;SDS011;65814;51.134;16.980;2023-08-21T05:06:31;16.30;;;12.70;;
76848;SDS011;65814;51.134;16.980;2023-08-21T05:08:59;18.00;;;14.50;;
76848;SDS011;65814;51.134;16.980;2023-08-21T05:11:27;16.30;;;13.80;;
76848;SDS011;65814;51.134;16.980;2023-08-21T05:13:55;16.60;;;14.20;;
76848;SDS011;65814;51.134;16.980;2023-08-21T05:16:23;17.90;;;13.90;;
76848;SDS011;65814;51.134;16.980;2023-08-21T05:18:51;17.10;;;14.00;;
76848;SDS011;65814;51.134;16.980;2023-08-21T05:21:19;17.00;;;14.60;;
76848;SDS011;65814;51.134;16.980;2023-08-21T05:23:47;14.40;;;12.60;;
76848;SDS011;65814;51.134;16.980;2023-08-21T05:26:15;15.50;;;12.40;;
76848;SDS011;65814;51.134;16.980;2023-08-21T05:28:43;16.70;;;13.10;;
76848;SDS011;65814;51.134;16.980;2023-08-21T05:31:11;16.30;;;13.80;;
76848;SDS011;65814;51.134;16.980;2023-08-21T05:33:39;15.20;;;12.90;;
76848;SDS011;65814;51.134;16.980;2023-08-21T05:36:07;16.40;;;13.90;;
76848;SDS011;65814;51.134;16.980;2023-08-21T05:38:38;16.20;;;12.90;;
76848;SDS011;65814;51.134;16.980;2023-08-21T05:41:08;15.50;;;12.20;;
76848;SDS011;65814;51.134;16.980;2023-08-21T05:43:36;15.70;;;12.80;;
76848;SDS011;65814;51.134;16.980;2023-08-21T05:46:07;15.20;;;13.10;;
76848;SDS011;65814;51.134;16.980;2023-08-21T05:48:35;15.60;;;12.90;;
76848;SDS011;65814;51.134;16.980;2023-08-21T05:51:03;16.10;;;13.20;;
76848;SDS011;65814;51.134;16.980;2023-08-21T05:53:32;14.90;;;13.20;;
76848;SDS011;65814;51.134;16.980;2023-08-21T05:56:00;14.10;;;12.60;;
76848;SDS011;65814;51.134;16.980;2023-08-21T05:58:28;14.60;;;11.70;;
76848;SDS011;65814;51.134;16.980;2023-08-21T06:00:59;12.30;;;10.50;;
76848;SDS011;65814;51.134;16.980;2023-08-21T06:03:27;12.40;;;11.00;;
76848;SDS011;65814;51.134;16.980;2023-08-21T06:05:55;11.60;;;10.40;;
76848;SDS011;65814;51.134;16.980;2023-08-21T06:08:23;12.50;;;10.30;;
76848;SDS011;65814;51.134;16.980;2023-08-21T06:10:53;11.90;;;10.00;;
76848;SDS011;65814;51.134;16.980;2023-08-21T06:13:21;11.50;;;9.10;;
76848;SDS011;65814;51.134;16.980;2023-08-21T06:15:49;9.70;;;8.30;;
76848;SDS011;65814;51.134;16.980;2023-08-21T06:18:17;10.90;;;7.90;;
76848;SDS011;65814;51.134;16.980;2023-08-21T06:20:45;10.60;;;7.90;;
76848;SDS011;65814;51.134;16.980;2023-08-21T06:23:13;9.50;;;7.00;;
76848;SDS011;65814;51.134;16.980;2023-08-21T06:25:41;8.90;;;7.00;;
76848;SDS011;65814;51.134;16.980;2023-08-21T06:28:11;8.00;;;6.40;;
76848;SDS011;65814;51.134;16.980;2023-08-21T06:30:40;9.80;;;7.50;;
76848;SDS011;65814;51.134;16.980;2023-08-21T06:33:08;9.50;;;7.60;;
76848;SDS011;65814;51.134;16.980;2023-08-21T06:35:36;8.30;;;7.20;;
76848;SDS011;65814;51.134;16.980;2023-08-21T06:38:05;10.20;;;8.60;;
76848;SDS011;65814;51.134;16.980;2023-08-21T06:40:33;11.30;;;7.60;;
76848;SDS011;65814;51.134;16.980;2023-08-21T06:43:01;8.20;;;7.20;;
76848;SDS011;65814;51.134;16.980;2023-08-21T06:45:29;11.00;;;8.50;;
76848;SDS011;65814;51.134;16.980;2023-08-21T06:47:58;12.10;;;6.90;;
76848;SDS011;65814;51.134;16.980;2023-08-21T06:50:26;8.40;;;6.80;;
76848;SDS011;65814;51.134;16.980;2023-08-21T06:52:54;7.30;;;6.50;;
76848;SDS011;65814;51.134;16.980;2023-08-21T06:55:22;7.20;;;6.00;;
76848;SDS011;65814;51.134;16.980;2023-08-21T06:57:50;7.40;;;6.60;;
76848;SDS011;65814;51.134;16.980;2023-08-21T07:00:18;9.10;;;6.70;;
76848;SDS011;65814;51.134;16.980;2023-08-21T07:02:46;6.80;;;5.70;;
76848;SDS011;65814;51.134;16.980;2023-08-21T07:05:14;7.60;;;6.00;;
76848;SDS011;65814;51.134;16.980;2023-08-21T07:07:42;6.50;;;5.80;;
76848;SDS011;65814;51.134;16.980;2023-08-21T07:10:10;8.40;;;6.30;;
76848;SDS011;65814;51.134;16.980;2023-08-21T07:12:38;8.10;;;7.10;;
76848;SDS011;65814;51.134;16.980;2023-08-21T07:15:06;8.60;;;6.00;;
76848;SDS011;65814;51.134;16.980;2023-08-21T07:17:35;7.10;;;5.80;;
76848;SDS011;65814;51.134;16.980;2023-08-21T07:20:03;8.00;;;5.70;;
76848;SDS011;65814;51.134;16.980;2023-08-21T07:22:32;8.30;;;6.20;;
76848;SDS011;65814;51.134;16.980;2023-08-21T07:25:00;7.00;;;5.50;;
76848;SDS011;65814;51.134;16.980;2023-08-21T07:27:31;7.90;;;5.80;;
76848;SDS011;65814;51.134;16.980;2023-08-21T07:29:59;7.40;;;5.80;;
76848;SDS011;65814;51.134;16.980;2023-08-21T07:32:27;8.40;;;6.30;;
76848;SDS011;65814;51.134;16.980;2023-08-21T07:34:55;9.40;;;5.60;;
76848;SDS011;65814;51.134;16.980;2023-08-21T07:37:23;7.10;;;5.40;;
76848;SDS011;65814;51.134;16.980;2023-08-21T07:39:52;6.40;;;5.60;;
76848;SDS011;65814;51.134;16.980;2023-08-21T07:42:20;5.80;;;5.00;;
76848;SDS011;65814;51.134;16.980;2023-08-21T07:44:48;7.00;;;5.50;;
76848;SDS011;65814;51.134;16.980;2023-08-21T07:47:16;6.40;;;5.40;;
76848;SDS011;65814;51.134;16.980;2023-08-21T07:49:44;6.40;;;5.80;;
76848;SDS011;65814;51.134;16.980;2023-08-21T07:52:12;8.10;;;6.00;;
76848;SDS011;65814;51.134;16.980;2023-08-21T07:54:39;9.10;;;5.90;;
76848;SDS011;65814;51.134;16.980;2023-08-21T07:57:07;6.50;;;5.30;;
76848;SDS011;65814;51.134;16.980;2023-08-21T07:59:35;10.60;;;5.10;;
76848;SDS011;65814;51.134;16.980;2023-08-21T08:02:03;7.10;;;5.40;;
76848;SDS011;65814;51.134;16.980;2023-08-21T08:04:32;7.00;;;5.40;;
76848;SDS011;65814;51.134;16.980;2023-08-21T08:07:00;5.60;;;5.00;;
76848;SDS011;65814;51.134;16.980;2023-08-21T08:09:27;7.50;;;4.70;;
76848;SDS011;65814;51.134;16.980;2023-08-21T08:11:55;7.50;;;5.90;;
76848;SDS011;65814;51.134;16.980;2023-08-21T08:14:23;6.80;;;5.80;;
76848;SDS011;65814;51.134;16.980;2023-08-21T08:16:51;8.20;;;5.20;;
76848;SDS011;65814;51.134;16.980;2023-08-21T08:19:19;7.50;;;4.80;;
76848;SDS011;65814;51.134;16.980;2023-08-21T08:21:47;6.70;;;4.90;;
76848;SDS011;65814;51.134;16.980;2023-08-21T08:24:15;6.40;;;4.60;;
76848;SDS011;65814;51.134;16.980;2023-08-21T08:26:43;5.30;;;3.80;;
76848;SDS011;65814;51.134;16.980;2023-08-21T08:29:11;7.20;;;4.60;;
76848;SDS011;65814;51.134;16.980;2023-08-21T08:31:39;6.00;;;4.90;;
76848;SDS011;65814;51.134;16.980;2023-08-21T08:34:06;7.20;;;4.30;;
76848;SDS011;65814;51.134;16.980;2023-08-21T08:36:34;6.10;;;4.00;;
76848;SDS011;65814;51.134;16.980;2023-08-21T08:39:02;6.90;;;3.90;;
76848;SDS011;65814;51.134;16.980;2023-08-21T08:41:38;6.70;;;4.40;;
76848;SDS011;65814;51.134;16.980;2023-08-21T08:44:22;4.80;;;3.60;;
76848;SDS011;65814;51.134;16.980;2023-08-21T08:46:52;5.80;;;4.10;;
76848;SDS011;65814;51.134;16.980;2023-08-21T08:49:21;5.30;;;3.50;;
76848;SDS011;65814;51.134;16.980;2023-08-21T08:51:50;8.40;;;4.30;;
76848;SDS011;65814;51.134;16.980;2023-08-21T08:54:19;5.90;;;3.70;;
76848;SDS011;65814;51.134;16.980;2023-08-21T08:56:48;5.40;;;3.40;;
76848;SDS011;65814;51.134;16.980;2023-08-21T08:59:16;4.70;;;3.90;;
76848;SDS011;65814;51.134;16.980;2023-08-21T09:01:44;4.50;;;3.70;;
76848;SDS011;65814;51.134;16.980;2023-08-21T09:04:12;3.50;;;3.00;;
76848;SDS011;65814;51.134;16.980;2023-08-21T09:06:40;5.20;;;3.50;;
76848;SDS011;65814;51.134;16.980;2023-08-21T09:09:08;5.50;;;3.60;;
76848;SDS011;65814;51.134;16.980;2023-08-21T09:11:44;6.40;;;3.20;;
76848;SDS011;65814;51.134;16.980;2023-08-21T09:14:13;6.20;;;3.90;;
76848;SDS011;65814;51.134;16.980;2023-08-21T09:16:57;6.00;;;3.00;;
76848;SDS011;65814;51.134;16.980;2023-08-21T09:19:28;7.30;;;3.90;;
76848;SDS011;65814;51.134;16.980;2023-08-21T09:21:55;7.50;;;3.80;;
76848;SDS011;65814;51.134;16.980;2023-08-21T09:24:23;5.20;;;3.70;;
76848;SDS011;65814;51.134;16.980;2023-08-21T09:26:54;13.90;;;4.00;;
76848;SDS011;65814;51.134;16.980;2023-08-21T09:29:22;5.00;;;4.30;;
76848;SDS011;65814;51.134;16.980;2023-08-21T09:31:50;7.60;;;4.50;;
76848;SDS011;65814;51.134;16.980;2023-08-21T09:34:18;5.60;;;4.40;;
76848;SDS011;65814;51.134;16.980;2023-08-21T09:36:46;5.50;;;4.90;;
76848;SDS011;65814;51.134;16.980;2023-08-21T09:39:22;5.50;;;4.90;;
76848;SDS011;65814;51.134;16.980;2023-08-21T09:41:56;8.90;;;4.50;;
76848;SDS011;65814;51.134;16.980;2023-08-21T09:44:24;4.90;;;4.00;;
76848;SDS011;65814;51.134;16.980;2023-08-21T09:46:52;5.50;;;3.80;;
76848;SDS011;65814;51.134;16.980;2023-08-21T09:49:20;7.00;;;4.20;;
76848;SDS011;65814;51.134;16.980;2023-08-21T09:51:49;5.80;;;4.00;;
76848;SDS011;65814;51.134;16.980;2023-08-21T09:54:17;4.60;;;3.90;;
76848;SDS011;65814;51.134;16.980;2023-08-21T09:56:45;6.80;;;4.30;;
76848;SDS011;65814;51.134;16.980;2023-08-21T09:59:13;4.80;;;3.90;;
76848;SDS011;65814;51.134;16.980;2023-08-21T10:01:42;6.40;;;3.80;;
76848;SDS011;65814;51.134;16.980;2023-08-21T10:04:10;5.00;;;4.20;;
76848;SDS011;65814;51.134;16.980;2023-08-21T10:06:38;4.40;;;3.30;;
76848;SDS011;65814;51.134;16.980;2023-08-21T10:09:06;4.90;;;4.10;;
76848;SDS011;65814;51.134;16.980;2023-08-21T10:11:36;7.40;;;4.20;;
76848;SDS011;65814;51.134;16.980;2023-08-21T10:14:04;5.00;;;4.20;;
76848;SDS011;65814;51.134;16.980;2023-08-21T10:16:32;7.10;;;4.00;;
76848;SDS011;65814;51.134;16.980;2023-08-21T10:19:02;7.30;;;4.00;;
76848;SDS011;65814;51.134;16.980;2023-08-21T10:21:36;6.90;;;4.00;;
76848;SDS011;65814;51.134;16.980;2023-08-21T10:24:07;5.20;;;3.70;;
76848;SDS011;65814;51.134;16.980;2023-08-21T10:26:37;5.10;;;4.20;;
76848;SDS011;65814;51.134;16.980;2023-08-21T10:29:08;7.20;;;4.70;;
76848;SDS011;65814;51.134;16.980;2023-08-21T10:34:11;5.20;;;4.00;;
76848;SDS011;65814;51.134;16.980;2023-08-21T10:42:08;5.20;;;3.60;;
76848;SDS011;65814;51.134;16.980;2023-08-21T10:49:56;5.00;;;3.40;;
76848;SDS011;65814;51.134;16.980;2023-08-21T10:52:25;5.90;;;3.50;;
76848;SDS011;65814;51.134;16.980;2023-08-21T10:55:02;4.10;;;3.70;;
76848;SDS011;65814;51.134;16.980;2023-08-21T10:57:33;6.40;;;3.90;;
76848;SDS011;65814;51.134;16.980;2023-08-21T11:02:32;4.70;;;3.60;;
76848;SDS011;65814;51.134;16.980;2023-08-21T11:05:00;5.80;;;3.90;;
76848;SDS011;65814;51.134;16.980;2023-08-21T11:07:31;4.50;;;3.50;;
76848;SDS011;65814;51.134;16.980;2023-08-21T11:10:06;5.70;;;3.90;;
76848;SDS011;65814;51.134;16.980;2023-08-21T11:12:41;6.30;;;3.60;;
76848;SDS011;65814;51.134;16.980;2023-08-21T11:15:17;6.30;;;4.20;;
76848;SDS011;65814;51.134;16.980;2023-08-21T11:17:56;5.20;;;3.80;;
76848;SDS011;65814;51.134;16.980;2023-08-21T11:20:32;7.70;;;3.50;;
76848;SDS011;65814;51.134;16.980;2023-08-21T11:23:02;4.50;;;3.70;;
76848;SDS011;65814;51.134;16.980;2023-08-21T11:25:34;3.90;;;3.10;;
76848;SDS011;65814;51.134;16.980;2023-08-21T11:28:05;3.80;;;3.40;;
76848;SDS011;65814;51.134;16.980;2023-08-21T11:30:34;4.20;;;3.40;;
76848;SDS011;65814;51.134;16.980;2023-08-21T11:33:11;5.20;;;3.60;;
76848;SDS011;65814;51.134;16.980;2023-08-21T11:35:40;3.80;;;3.10;;
76848;SDS011;65814;51.134;16.980;2023-08-21T11:38:16;4.80;;;3.70;;
76848;SDS011;65814;51.134;16.980;2023-08-21T11:43:23;5.80;;;4.10;;
76848;SDS011;65814;51.134;16.980;2023-08-21T11:46:04;5.10;;;3.90;;
76848;SDS011;65814;51.134;16.980;2023-08-21T11:48:34;6.60;;;4.30;;
76848;SDS011;65814;51.134;16.980;2023-08-21T11:51:04;5.50;;;4.10;;
76848;SDS011;65814;51.134;16.980;2023-08-21T11:53:38;5.50;;;4.10;;
76848;SDS011;65814;51.134;16.980;2023-08-21T11:56:11;4.40;;;3.70;;
76848;SDS011;65814;51.134;16.980;2023-08-21T11:58:41;4.50;;;3.50;;
76848;SDS011;65814;51.134;16.980;2023-08-21T12:01:10;6.70;;;4.40;;
76848;SDS011;65814;51.134;16.980;2023-08-21T12:03:39;5.70;;;4.60;;
76848;SDS011;65814;51.134;16.980;2023-08-21T12:06:07;5.30;;;3.80;;
76848;SDS011;65814;51.134;16.980;2023-08-21T12:08:37;6.40;;;4.00;;
76848;SDS011;65814;51.134;16.980;2023-08-21T12:11:06;5.50;;;3.90;;
76848;SDS011;65814;51.134;16.980;2023-08-21T12:13:35;5.80;;;4.00;;
76848;SDS011;65814;51.134;16.980;2023-08-21T12:16:03;5.10;;;3.60;;
76848;SDS011;65814;51.134;16.980;2023-08-21T12:18:31;3.50;;;3.00;;
76848;SDS011;65814;51.134;16.980;2023-08-21T12:20:59;5.50;;;3.60;;
76848;SDS011;65814;51.134;16.980;2023-08-21T12:23:27;4.60;;;3.80;;
76848;SDS011;65814;51.134;16.980;2023-08-21T12:25:56;5.10;;;4.00;;
76848;SDS011;65814;51.134;16.980;2023-08-21T12:28:23;4.90;;;3.80;;
76848;SDS011;65814;51.134;16.980;2023-08-21T12:30:51;5.30;;;4.10;;
76848;SDS011;65814;51.134;16.980;2023-08-21T12:33:19;5.20;;;4.70;;
76848;SDS011;65814;51.134;16.980;2023-08-21T12:35:50;4.60;;;4.00;;
76848;SDS011;65814;51.134;16.980;2023-08-21T12:38:18;4.80;;;4.10;;
76848;SDS011;65814;51.134;16.980;2023-08-21T12:40:48;7.70;;;3.70;;
76848;SDS011;65814;51.134;16.980;2023-08-21T12:43:16;8.20;;;4.10;;
76848;SDS011;65814;51.134;16.980;2023-08-21T12:45:44;6.80;;;4.60;;
76848;SDS011;65814;51.134;16.980;2023-08-21T12:48:13;5.70;;;4.20;;
76848;SDS011;65814;51.134;16.980;2023-08-21T12:50:41;7.80;;;4.40;;
76848;SDS011;65814;51.134;16.980;2023-08-21T12:53:09;6.70;;;4.70;;
76848;SDS011;65814;51.134;16.980;2023-08-21T12:55:37;5.50;;;3.80;;
76848;SDS011;65814;51.134;16.980;2023-08-21T12:58:05;5.30;;;4.30;;
76848;SDS011;65814;51.134;16.980;2023-08-21T13:00:33;5.10;;;4.00;;
76848;SDS011;65814;51.134;16.980;2023-08-21T13:03:01;7.30;;;5.20;;
76848;SDS011;65814;51.134;16.980;2023-08-21T13:05:31;5.70;;;3.70;;
76848;SDS011;65814;51.134;16.980;2023-08-21T13:08:01;5.50;;;4.50;;
76848;SDS011;65814;51.134;16.980;2023-08-21T13:10:29;5.50;;;4.50;;
76848;SDS011;65814;51.134;16.980;2023-08-21T13:12:57;6.40;;;4.70;;
76848;SDS011;65814;51.134;16.980;2023-08-21T13:15:26;5.60;;;4.70;;
76848;SDS011;65814;51.134;16.980;2023-08-21T13:17:53;8.10;;;5.00;;
76848;SDS011;65814;51.134;16.980;2023-08-21T13:20:22;5.30;;;4.60;;
76848;SDS011;65814;51.134;16.980;2023-08-21T13:22:50;6.20;;;4.30;;
76848;SDS011;65814;51.134;16.980;2023-08-21T13:25:19;7.30;;;4.80;;
76848;SDS011;65814;51.134;16.980;2023-08-21T13:27:48;5.20;;;4.60;;
76848;SDS011;65814;51.134;16.980;2023-08-21T13:30:16;4.70;;;4.20;;
76848;SDS011;65814;51.134;16.980;2023-08-21T13:32:45;6.70;;;5.00;;
76848;SDS011;65814;51.134;16.980;2023-08-21T13:35:13;5.70;;;4.60;;
76848;SDS011;65814;51.134;16.980;2023-08-21T13:37:41;6.90;;;4.70;;
76848;SDS011;65814;51.134;16.980;2023-08-21T13:40:09;5.70;;;5.20;;
76848;SDS011;65814;51.134;16.980;2023-08-21T13:42:43;6.30;;;5.20;;
76848;SDS011;65814;51.134;16.980;2023-08-21T13:45:12;7.70;;;5.50;;
76848;SDS011;65814;51.134;16.980;2023-08-21T13:47:41;6.20;;;5.60;;
76848;SDS011;65814;51.134;16.980;2023-08-21T13:50:11;5.90;;;5.00;;
76848;SDS011;65814;51.134;16.980;2023-08-21T13:52:39;5.40;;;4.90;;
76848;SDS011;65814;51.134;16.980;2023-08-21T13:55:08;6.00;;;5.50;;
76848;SDS011;65814;51.134;16.980;2023-08-21T13:57:37;7.90;;;5.70;;
76848;SDS011;65814;51.134;16.980;2023-08-21T14:00:06;5.90;;;5.00;;
76848;SDS011;65814;51.134;16.980;2023-08-21T14:02:40;6.70;;;5.00;;
76848;SDS011;65814;51.134;16.980;2023-08-21T14:05:10;6.40;;;5.50;;
76848;SDS011;65814;51.134;16.980;2023-08-21T14:07:39;6.60;;;4.50;;
76848;SDS011;65814;51.134;16.980;2023-08-21T14:10:08;5.10;;;4.60;;
76848;SDS011;65814;51.134;16.980;2023-08-21T14:12:36;6.50;;;4.90;;
76848;SDS011;65814;51.134;16.980;2023-08-21T14:15:09;6.40;;;4.90;;
76848;SDS011;65814;51.134;16.980;2023-08-21T14:17:38;6.00;;;4.70;;
76848;SDS011;65814;51.134;16.980;2023-08-21T14:20:07;4.90;;;4.40;;
76848;SDS011;65814;51.134;16.980;2023-08-21T14:22:35;6.30;;;4.60;;
76848;SDS011;65814;51.134;16.980;2023-08-21T14:25:04;5.30;;;4.40;;
76848;SDS011;65814;51.134;16.980;2023-08-21T14:27:34;4.90;;;4.30;;
76848;SDS011;65814;51.134;16.980;2023-08-21T14:30:03;4.90;;;3.70;;
76848;SDS011;65814;51.134;16.980;2023-08-21T14:32:32;6.00;;;4.30;;
76848;SDS011;65814;51.134;16.980;2023-08-21T14:35:04;5.50;;;4.70;;
76848;SDS011;65814;51.134;16.980;2023-08-21T14:40:04;4.20;;;3.80;;
76848;SDS011;65814;51.134;16.980;2023-08-21T14:42:36;4.90;;;4.30;;
76848;SDS011;65814;51.134;16.980;2023-08-21T14:45:05;5.60;;;4.90;;
76848;SDS011;65814;51.134;16.980;2023-08-21T14:47:34;6.20;;;4.10;;
76848;SDS011;65814;51.134;16.980;2023-08-21T14:50:04;5.30;;;4.00;;
76848;SDS011;65814;51.134;16.980;2023-08-21T14:52:32;5.90;;;4.30;;
76848;SDS011;65814;51.134;16.980;2023-08-21T14:55:00;4.50;;;4.10;;
76848;SDS011;65814;51.134;16.980;2023-08-21T14:57:28;4.60;;;3.40;;